This demonstration page uses our WeatherBlox Daily Observations layout. Learn more.

Left ArrowRight Arrow

Hourly Observations for March 22, 2021

Temp ( °F °C ) Dew Point ( °F °C ) Humidity (%) Winds ( mph kmh ) Pressure ( in mb ) Visibility ( mi km ) Precip ( " mm )
1:51 am 01:51 Clear 50 10 9 -12.8 19 19 NNW 7 11 29.7 1006 10 16.0934 0 0
2:51 am 02:51 Clear 51 10.6 11 -11.7 20 20 NW 10 17 29.7 1006 10 16.0934 0 0
3:51 am 03:51 Mostly Clear 51 10.6 14 -10 23 23 NNW 10 17 29.7 1006 10 16.0934 0 0
4:51 am 04:51 Clear 52 11.1 14 -10 22 22 NW 14 22 29.7 1006 10 16.0934 0 0
5:51 am 05:51 Clear 49 9.4 15 -9.4 26 26 NW 13 20 29.71 1006 10 16.0934 0 0
6:51 am 06:51 Sunny 51 10.6 16 -8.9 25 25 NW 16 26 29.71 1006 10 16.0934 0 0
7:51 am 07:51 Sunny 54 12.2 18 -7.8 24 24 WNW 22 35 29.73 1007 10 16.0934 0 0
8:51 am 08:51 Sunny 56 13.3 16 -8.9 21 21 WNW 23 37 29.78 1008 10 16.0934 0 0
9:51 am 09:51 Sunny 57 13.9 13 -10.6 17 17 W 21 33 29.81 1009 10 16.0934 0 0
10:51 am 10:51 Sunny 59 15 13 -10.6 16 16 NW 24 39 29.83 1010 10 16.0934 0 0
11:51 am 11:51 Sunny 61 16.1 17 -8.3 18 18 NW 28 44 29.82 1010 10 16.0934 0 0
12:51 pm 12:51 Sunny 62 16.7 17 -8.3 17 17 WNW 24 39 29.82 1010 10 16.0934 0 0
1:51 pm 13:51 Sunny 62 16.7 14 -10 15 15 W 21 33 29.8 1009 10 16.0934 0 0
2:51 pm 14:51 Sunny 64 17.8 12 -11.1 13 13 WNW 25 41 29.79 1009 10 16.0934 0 0
3:51 pm 15:51 Sunny 64 17.8 12 -11.1 13 13 WNW 24 39 29.78 1008 10 16.0934 0 0
4:51 pm 16:51 Sunny 63 17.2 9 -12.8 12 12 WNW 22 35 29.78 1009 10 16.0934 0 0
5:51 pm 17:51 Sunny 61 16.1 9 -12.8 13 13 WNW 17 28 29.79 1009 10 16.0934 0 0
6:51 pm 18:51 Clear 57 13.9 9 -12.8 15 15 WNW 16 26 29.82 1010 10 16.0934 0 0
7:51 pm 19:51 Clear 53 11.7 8 -13.3 16 16 NW 10 17 29.84 1010 10 16.0934 0 0
8:51 pm 20:51 Clear 53 11.7 9 -12.8 17 17 NW 15 24 29.85 1011 10 16.0934 0 0
9:51 pm 21:51 Clear 51 10.6 9 -12.8 18 18 NNW 10 17 29.85 1011 10 16.0934 0 0
10:51 pm 22:51 Clear 47 8.3 9 -12.8 21 21 NW 6 9 29.84 1011 10 16.0934 0 0
11:51 pm 23:51 Clear 46 7.8 9 -12.8 22 22 Calm 29.83 1010 10 16.0934 0 0

Powered by AerisWeather